Time;durP1;ratioP1;P1;durP2;ratioP2;P2;SDS_P1;SDS_P2;PMS_P1;PMS_P2;Temp;Humidity;BMP_temperature;BMP_pressure;BME280_temperature;BME280_humidity;BME280_pressure;Samples;Min_cycle;Max_cycle;Signal;HPM_P1;HPM_P2
2022/05/23 00:00:52;;;;;;;6.53;5.38;;;;;;;19.91;100.00;97581.97;5030513;28;20032;-76
2022/05/23 00:03:18;;;;;;;6.15;4.88;;;;;;;19.89;100.00;97578.75;5030492;28;20033;-75
2022/05/23 00:05:47;;;;;;;6.70;4.70;;;;;;;19.83;100.00;97563.53;5028615;28;20030;-77
2022/05/23 00:08:12;;;;;;;7.47;4.88;;;;;;;19.89;100.00;97570.41;5029594;28;20505;-76
2022/05/23 00:10:38;;;;;;;10.80;5.30;;;;;;;19.71;100.00;97533.16;5030349;28;20061;-75
2022/05/23 00:13:04;;;;;;;7.78;5.13;;;;;;;19.83;100.00;97551.66;5029429;28;20029;-76
2022/05/23 00:15:29;;;;;;;6.18;4.95;;;;;;;19.61;100.00;97514.31;5029343;28;20040;-76
2022/05/23 00:17:55;;;;;;;6.40;4.85;;;;;;;19.76;100.00;97524.56;5028818;28;20540;-76
2022/05/23 00:20:22;;;;;;;8.75;5.78;;;;;;;19.66;100.00;97531.50;5029579;28;20470;-77
2022/05/23 00:22:48;;;;;;;6.60;4.88;;;;;;;19.57;100.00;97510.69;5027551;28;20044;-75
2022/05/23 00:25:14;;;;;;;7.90;5.28;;;;;;;19.37;100.00;97472.94;5030193;28;20014;-76
2022/05/23 00:27:42;;;;;;;8.40;5.55;;;;;;;19.66;100.00;97502.94;5030150;28;20532;-77
2022/05/23 00:30:14;;;;;;;6.85;5.00;;;;;;;19.63;100.00;97504.47;5030292;28;20017;-76
2022/05/23 00:35:24;;;;;;;8.27;4.80;;;;;;;19.13;100.00;97493.44;5031065;28;20083;-76
2022/05/23 00:37:58;;;;;;;7.20;4.60;;;;;;;19.26;100.00;97473.53;5030650;28;20036;-75
2022/05/23 00:40:28;;;;;;;8.57;4.70;;;;;;;19.28;100.00;97459.31;5031081;28;20022;-74
2022/05/23 00:43:15;;;;;;;8.48;4.78;;;;;;;19.18;100.00;97460.69;5030323;28;20033;-76
2022/05/23 00:46:07;;;;;;;8.45;4.60;;;;;;;19.11;100.00;97448.63;5030725;28;20037;-75
2022/05/23 00:48:33;;;;;;;7.50;4.97;;;;;;;19.20;100.00;97463.88;5028159;28;20049;-76
2022/05/23 00:51:07;;;;;;;7.78;5.85;;;;;;;19.09;100.00;97454.53;5030757;28;20390;-76
2022/05/23 00:53:38;;;;;;;8.05;5.50;;;;;;;19.02;100.00;97440.53;5030150;28;20040;-75
2022/05/23 00:56:09;;;;;;;6.65;5.15;;;;;;;19.12;100.00;97455.78;5029707;28;20087;-75
2022/05/23 00:58:47;;;;;;;6.55;5.35;;;;;;;19.13;100.00;97451.84;5027301;28;20045;-76
2022/05/23 01:01:17;;;;;;;8.00;5.85;;;;;;;19.17;100.00;97452.75;5027628;28;20137;-77
2022/05/23 01:03:42;;;;;;;10.10;4.88;;;;;;;19.23;100.00;97435.41;5029087;28;20032;-75
2022/05/23 01:06:08;;;;;;;10.23;5.68;;;;;;;19.28;100.00;97434.34;5015504;28;20113;-76
2022/05/23 01:08:36;;;;;;;7.60;5.60;;;;;;;19.36;100.00;97430.53;5010198;28;20426;-75
2022/05/23 01:11:02;;;;;;;7.97;5.15;;;;;;;19.25;100.00;97405.38;5010889;28;20378;-75
2022/05/23 01:13:27;;;;;;;7.30;5.40;;;;;;;19.24;100.00;97400.19;5010331;28;20100;-75
2022/05/23 01:15:52;;;;;;;10.45;6.13;;;;;;;19.24;100.00;97392.66;5010218;28;20425;-76
2022/05/23 01:18:18;;;;;;;8.18;5.53;;;;;;;19.26;100.00;97384.00;5023800;28;20037;-75
2022/05/23 01:20:46;;;;;;;11.98;6.22;;;;;;;19.31;100.00;97369.00;5029672;28;20022;-75
2022/05/23 01:23:22;;;;;;;9.88;7.20;;;;;;;19.19;100.00;97365.22;5029806;28;20478;-75
2022/05/23 01:25:48;;;;;;;12.48;6.22;;;;;;;19.15;100.00;97378.22;5029361;28;20124;-76
2022/05/23 01:28:14;;;;;;;9.02;6.35;;;;;;;19.00;100.00;97370.78;5029847;28;20192;-75
2022/05/23 01:30:41;;;;;;;8.15;6.15;;;;;;;18.96;100.00;97360.78;5029558;28;20034;-76
2022/05/23 01:33:08;;;;;;;8.10;6.38;;;;;;;18.97;100.00;97365.97;5028913;28;20486;-75
2022/05/23 01:35:34;;;;;;;8.07;6.05;;;;;;;19.00;100.00;97387.41;5028940;28;20040;-76
2022/05/23 01:38:00;;;;;;;8.30;6.43;;;;;;;19.00;100.00;97398.50;5028322;28;20029;-77
2022/05/23 01:40:25;;;;;;;11.02;6.78;;;;;;;18.94;100.00;97394.41;5030442;28;20057;-77
2022/05/23 01:42:51;;;;;;;9.75;5.80;;;;;;;18.91;100.00;97395.16;5029347;28;20053;-76
2022/05/23 01:45:22;;;;;;;6.47;5.55;;;;;;;18.99;100.00;97396.88;5030099;28;20084;-77
2022/05/23 01:47:48;;;;;;;8.75;6.57;;;;;;;18.99;100.00;97385.81;5030207;28;20044;-76
2022/05/23 01:50:13;;;;;;;8.98;6.70;;;;;;;19.07;100.00;97387.56;5030870;28;20128;-76
2022/05/23 01:52:39;;;;;;;8.85;7.05;;;;;;;19.07;100.00;97378.44;5033772;28;20941;-76
2022/05/23 01:55:05;;;;;;;8.38;6.63;;;;;;;19.07;100.00;97376.47;5031338;28;20116;-76
2022/05/23 01:57:32;;;;;;;7.75;6.07;;;;;;;19.02;100.00;97373.97;5028863;28;20592;-75
2022/05/23 02:02:47;;;;;;;8.98;6.00;;;;;;;18.95;100.00;97379.38;5030085;28;20072;-77
2022/05/23 02:05:13;;;;;;;10.93;7.43;;;;;;;18.91;100.00;97380.47;5029795;28;20037;-77
2022/05/23 02:07:39;;;;;;;8.05;5.97;;;;;;;18.91;100.00;97383.25;5029263;28;20021;-76
2022/05/23 02:10:05;;;;;;;9.27;6.22;;;;;;;18.86;100.00;97358.59;5028883;28;20048;-77
2022/05/23 02:12:30;;;;;;;8.57;5.90;;;;;;;18.91;100.00;97366.63;5028421;28;20025;-75
2022/05/23 02:14:56;;;;;;;8.13;5.72;;;;;;;18.82;100.00;97341.09;5029139;28;20033;-75
2022/05/23 02:17:22;;;;;;;10.48;5.90;;;;;;;18.90;100.00;97360.25;5032633;28;20037;-74
2022/05/23 02:19:47;;;;;;;7.20;5.70;;;;;;;18.90;100.00;97353.91;5033200;28;20088;-74
2022/05/23 02:22:13;;;;;;;8.82;6.45;;;;;;;18.81;100.00;97356.09;5032873;28;20021;-76
2022/05/23 02:24:38;;;;;;;12.52;5.78;;;;;;;18.69;100.00;97345.97;5032781;28;20032;-76
2022/05/23 02:27:04;;;;;;;8.10;5.78;;;;;;;18.68;100.00;97350.69;5032576;28;20121;-77
2022/05/23 02:29:29;;;;;;;7.38;5.32;;;;;;;18.73;100.00;97351.59;5032981;28;20409;-76
2022/05/23 02:31:55;;;;;;;8.18;5.78;;;;;;;18.67;100.00;97329.69;5032687;28;20025;-76
2022/05/23 02:34:20;;;;;;;14.90;5.32;;;;;;;18.69;100.00;97332.09;5033056;28;20458;-75
2022/05/23 02:36:47;;;;;;;6.82;5.25;;;;;;;18.73;100.00;97327.44;5032980;28;20038;-75
2022/05/23 02:39:13;;;;;;;7.85;5.80;;;;;;;18.58;100.00;97314.44;5032722;28;20463;-76
2022/05/23 02:41:39;;;;;;;8.27;5.82;;;;;;;18.63;100.00;97328.81;5033598;28;20041;-77
2022/05/23 02:44:05;;;;;;;7.53;5.55;;;;;;;18.58;100.00;97308.91;5032529;28;20026;-77
2022/05/23 02:46:31;;;;;;;8.52;6.07;;;;;;;18.57;100.00;97329.47;5031729;28;20030;-77
2022/05/23 02:48:56;;;;;;;9.13;5.30;;;;;;;18.56;100.00;97336.97;5030763;28;20033;-77
2022/05/23 02:51:22;;;;;;;7.57;5.20;;;;;;;18.42;100.00;97333.84;5031334;28;20478;-77
2022/05/23 02:53:48;;;;;;;6.22;5.22;;;;;;;18.46;100.00;97339.47;5031728;28;20032;-75
2022/05/23 02:56:15;;;;;;;9.15;5.30;;;;;;;18.44;100.00;97341.81;5030484;28;20033;-76
2022/05/23 02:58:40;;;;;;;7.10;4.90;;;;;;;18.43;100.00;97332.69;5032672;28;20471;-76
2022/05/23 03:01:06;;;;;;;11.80;5.85;;;;;;;18.51;100.00;97342.78;5032881;28;20030;-77
2022/05/23 03:03:32;;;;;;;9.98;5.85;;;;;;;18.38;100.00;97327.44;5032175;28;20476;-76
2022/05/23 03:05:57;;;;;;;7.93;5.00;;;;;;;18.39;100.00;97333.75;5032431;28;20018;-75
2022/05/23 03:08:25;;;;;;;7.85;4.82;;;;;;;18.40;100.00;97335.38;5032055;28;20028;-76
2022/05/23 03:10:52;;;;;;;6.28;4.90;;;;;;;18.38;100.00;97346.84;5033393;28;20053;-76
2022/05/23 03:13:18;;;;;;;5.75;4.93;;;;;;;18.41;100.00;97345.31;5033005;28;20052;-76
2022/05/23 03:15:44;;;;;;;7.57;5.15;;;;;;;18.43;100.00;97346.53;5032889;28;20057;-75
2022/05/23 03:18:10;;;;;;;7.05;4.70;;;;;;;18.51;100.00;97358.63;5032220;28;20029;-76
2022/05/23 03:20:36;;;;;;;6.15;4.75;;;;;;;18.54;100.00;97349.59;5031165;28;20445;-76
2022/05/23 03:28:31;;;;;;;7.28;4.93;;;;;;;18.53;100.00;97339.66;5031181;28;20067;-76
2022/05/23 03:30:56;;;;;;;6.80;5.05;;;;;;;18.52;100.00;97349.13;5031757;28;20037;-76
2022/05/23 03:33:22;;;;;;;7.38;5.45;;;;;;;18.57;100.00;97346.91;5032196;28;20071;-76
2022/05/23 03:35:48;;;;;;;6.40;4.97;;;;;;;18.57;100.00;97351.63;5032451;28;20097;-76
2022/05/23 03:38:14;;;;;;;7.45;5.43;;;;;;;18.56;100.00;97350.84;5031578;28;20466;-77
2022/05/23 03:40:40;;;;;;;7.28;5.03;;;;;;;18.63;100.00;97367.63;5032410;28;20034;-77
2022/05/23 03:43:07;;;;;;;6.88;5.00;;;;;;;18.61;100.00;97369.13;5031647;28;20029;-78
2022/05/23 03:45:33;;;;;;;8.32;4.72;;;;;;;18.54;100.00;97363.44;5031524;28;20055;-76
2022/05/23 03:48:00;;;;;;;6.28;5.00;;;;;;;18.57;100.00;97369.06;5031539;28;20136;-75
2022/05/23 03:50:29;;;;;;;7.43;4.70;;;;;;;18.59;100.00;97375.03;5031585;28;20025;-75
2022/05/23 03:52:55;;;;;;;9.23;5.32;;;;;;;18.57;100.00;97379.34;5031667;28;20044;-76
2022/05/23 03:55:22;;;;;;;6.65;4.72;;;;;;;18.62;100.00;97381.81;5029935;28;20534;-76
2022/05/23 03:57:47;;;;;;;7.25;4.70;;;;;;;18.62;100.00;97379.03;5030598;28;20045;-75
2022/05/23 04:00:13;;;;;;;7.88;4.90;;;;;;;18.67;100.00;97381.53;5030564;28;20531;-74
2022/05/23 04:02:40;;;;;;;6.28;4.65;;;;;;;18.70;100.00;97383.59;5031783;28;20026;-75
2022/05/23 04:05:07;;;;;;;8.23;5.45;;;;;;;18.68;100.00;97377.59;5032300;28;20112;-77
2022/05/23 04:07:36;;;;;;;7.63;5.18;;;;;;;18.73;100.00;97375.34;5032363;28;20056;-75
2022/05/23 04:10:03;;;;;;;6.07;4.97;;;;;;;18.71;100.00;97374.09;5036470;28;20231;-75
2022/05/23 04:12:28;;;;;;;8.07;4.72;;;;;;;18.75;100.00;97385.28;5032007;28;20040;-75
2022/05/23 04:14:54;;;;;;;10.30;5.22;;;;;;;18.70;100.00;97375.28;5030628;28;20025;-75
2022/05/23 04:17:19;;;;;;;7.28;5.35;;;;;;;18.56;100.00;97361.09;5031377;28;20079;-76
2022/05/23 04:19:44;;;;;;;5.93;4.78;;;;;;;18.78;100.00;97395.63;5030854;28;20033;-75
2022/05/23 04:22:10;;;;;;;6.28;5.32;;;;;;;18.77;100.00;97399.56;5035828;28;20026;-75
2022/05/23 04:24:35;;;;;;;13.70;6.45;;;;;;;18.80;100.00;97402.41;5035419;28;20021;-75
2022/05/23 04:27:00;;;;;;;7.13;5.03;;;;;;;18.81;100.00;97401.25;5031205;28;20500;-75
2022/05/23 04:29:26;;;;;;;6.25;4.85;;;;;;;18.80;100.00;97399.63;5030913;28;20034;-76
2022/05/23 04:31:51;;;;;;;9.05;5.60;;;;;;;18.83;100.00;97398.09;5030361;28;20048;-76
2022/05/23 04:37:01;;;;;;;10.20;5.53;;;;;;;18.89;100.00;97413.31;5028817;28;20029;-79
2022/05/23 04:39:27;;;;;;;13.60;5.65;;;;;;;18.91;100.00;97417.31;5028857;28;20809;-79
2022/05/23 04:41:52;;;;;;;6.65;5.28;;;;;;;18.88;100.00;97411.69;5030972;28;20025;-78
2022/05/23 04:44:18;;;;;;;7.28;5.72;;;;;;;18.86;100.00;97411.25;5030948;28;20037;-78
2022/05/23 04:49:50;;;;;;;8.35;5.78;;;;;;;18.90;100.00;97412.94;5030088;28;20048;-70
2022/05/23 04:52:23;;;;;;;15.75;5.30;;;;;;;18.90;100.00;97409.34;5028995;28;20057;-70
2022/05/23 04:54:48;;;;;;;6.13;4.90;;;;;;;18.79;100.00;97400.00;5029980;28;20040;-71
2022/05/23 04:57:14;;;;;;;8.23;5.90;;;;;;;18.77;100.00;97400.38;5030187;28;20410;-72
2022/05/23 04:59:39;;;;;;;6.35;4.93;;;;;;;18.76;100.00;97393.22;5030574;28;20036;-71
2022/05/23 05:02:04;;;;;;;7.65;5.03;;;;;;;18.86;100.00;97412.03;5029946;28;20027;-71
2022/05/23 05:04:31;;;;;;;8.38;5.13;;;;;;;19.00;100.00;97414.34;5030154;28;20033;-71
2022/05/23 05:06:57;;;;;;;6.93;5.10;;;;;;;19.12;100.00;97416.97;5030015;28;20029;-71
2022/05/23 05:09:23;;;;;;;6.53;4.97;;;;;;;19.07;100.00;97411.72;5029052;28;20041;-71
2022/05/23 05:11:48;;;;;;;10.43;5.15;;;;;;;19.03;100.00;97408.88;5025857;28;20088;-71
2022/05/23 05:14:14;;;;;;;6.60;5.30;;;;;;;19.26;100.00;97417.28;5030145;28;20036;-72
2022/05/23 05:16:42;;;;;;;7.72;4.88;;;;;;;19.35;100.00;97417.84;5030520;28;20022;-70
2022/05/23 05:19:08;;;;;;;8.95;5.45;;;;;;;19.46;100.00;97409.75;5045226;28;20509;-70
2022/05/23 05:21:33;;;;;;;9.13;5.72;;;;;;;19.50;100.00;97399.53;5029858;28;20029;-75
2022/05/23 05:23:58;;;;;;;6.40;5.20;;;;;;;19.56;100.00;97409.97;5029784;28;20029;-72
2022/05/23 05:26:28;;;;;;;8.68;5.88;;;;;;;19.75;100.00;97414.69;5029194;28;20033;-71
2022/05/23 05:28:54;;;;;;;8.70;5.93;;;;;;;19.94;100.00;97405.50;5029082;28;20030;-72
2022/05/23 05:32:04;;;;;;;8.63;5.32;;;;;;;20.03;100.00;97406.88;5025249;28;20021;-72
2022/05/23 05:34:37;;;;;;;9.63;6.43;;;;;;;20.26;100.00;97415.22;4987173;28;20046;-71
2022/05/23 05:37:10;;;;;;;7.97;5.25;;;;;;;20.37;100.00;97409.81;5021930;28;20037;-71
2022/05/23 05:39:41;;;;;;;7.68;5.28;;;;;;;20.40;100.00;97414.63;5027609;28;20030;-71
2022/05/23 05:42:27;;;;;;;12.20;5.30;;;;;;;20.40;100.00;97421.00;5029236;28;20048;-71
2022/05/23 05:45:00;;;;;;;9.75;5.80;;;;;;;20.42;100.00;97409.53;5027332;28;20473;-71
2022/05/23 05:47:32;;;;;;;9.32;5.82;;;;;;;20.47;100.00;97414.75;5026936;28;20482;-71
2022/05/23 05:50:04;;;;;;;9.05;4.88;;;;;;;20.49;100.00;97415.97;5041946;28;20113;-71
2022/05/23 05:52:33;;;;;;;6.40;4.97;;;;;;;20.49;100.00;97415.19;5030541;28;20478;-71
2022/05/23 05:55:01;;;;;;;6.57;4.65;;;;;;;20.54;100.00;97432.38;5032673;28;20029;-71
2022/05/23 05:57:27;;;;;;;7.25;4.38;;;;;;;20.45;100.00;97428.25;5032542;28;20081;-71
2022/05/23 05:59:53;;;;;;;6.97;4.50;;;;;;;20.19;100.00;97420.63;5033309;28;20097;-72
2022/05/23 06:02:18;;;;;;;7.03;4.65;;;;;;;20.37;100.00;97407.06;5032063;28;20467;-70
2022/05/23 06:04:45;;;;;;;7.47;3.92;;;;;;;20.17;93.68;97414.66;5033498;28;20030;-71
2022/05/23 06:12:48;;;;;;;7.93;4.22;;;;;;;20.25;94.77;97417.16;5033754;28;20068;-72
2022/05/23 06:15:15;;;;;;;8.65;3.90;;;;;;;20.15;98.63;97417.78;5033307;28;20430;-70
2022/05/23 06:17:43;;;;;;;8.45;4.68;;;;;;;20.51;100.00;97415.63;5034532;28;20029;-70
2022/05/23 06:20:11;;;;;;;8.77;4.03;;;;;;;20.74;98.18;97413.56;5034953;28;20399;-71
2022/05/23 06:22:36;;;;;;;8.18;5.00;;;;;;;20.84;98.15;97412.94;5036189;28;20431;-71
2022/05/23 06:25:02;;;;;;;7.25;4.40;;;;;;;20.94;96.71;97409.50;5034942;28;20116;-71
2022/05/23 06:27:28;;;;;;;5.65;4.45;;;;;;;21.05;93.80;97418.00;5032725;28;20079;-73
2022/05/23 06:29:53;;;;;;;6.97;4.20;;;;;;;21.06;91.08;97408.47;5032822;28;20087;-72
2022/05/23 06:32:19;;;;;;;9.30;6.10;;;;;;;21.18;88.34;97409.06;5033992;28;20021;-71
2022/05/23 06:34:44;;;;;;;6.68;4.20;;;;;;;21.24;85.54;97409.53;5033342;28;20466;-71
2022/05/23 06:37:09;;;;;;;8.70;4.53;;;;;;;21.35;86.85;97414.06;5032756;28;20028;-71
2022/05/23 06:39:35;;;;;;;6.38;4.05;;;;;;;21.35;87.12;97410.47;5032452;28;20028;-71
2022/05/23 06:42:01;;;;;;;7.30;3.90;;;;;;;21.36;87.08;97404.50;5033553;28;20457;-71
2022/05/23 06:44:26;;;;;;;5.28;3.88;;;;;;;21.51;85.54;97402.72;5031523;28;20557;-70
2022/05/23 06:46:51;;;;;;;5.72;3.70;;;;;;;21.75;83.45;97412.53;5032380;28;20056;-70
2022/05/23 06:49:17;;;;;;;4.65;3.33;;;;;;;21.78;81.59;97409.78;5027603;28;20034;-75
2022/05/23 06:51:48;;;;;;;4.72;3.50;;;;;;;21.61;77.67;97401.25;5031924;28;20375;-73
2022/05/23 06:54:14;;;;;;;4.78;3.13;;;;;;;21.47;77.21;97406.63;5032216;28;20029;-73
2022/05/23 06:56:40;;;;;;;5.45;3.60;;;;;;;21.58;77.35;97415.94;5029588;28;20565;-74
2022/05/23 06:59:07;;;;;;;4.45;3.33;;;;;;;21.52;77.48;97409.09;5031201;28;20148;-74
2022/05/23 07:01:33;;;;;;;6.65;3.33;;;;;;;21.67;75.68;97428.38;5029595;28;20490;-73
2022/05/23 07:03:58;;;;;;;7.72;3.30;;;;;;;21.54;76.58;97413.09;5031222;28;20060;-73
2022/05/23 07:14:38;;;;;;;5.90;3.33;;;;;;;21.97;77.25;97413.56;5029937;28;20044;-74
2022/05/23 07:17:05;;;;;;;5.85;3.42;;;;;;;22.07;76.14;97416.47;5029976;28;20101;-73
2022/05/23 07:19:35;;;;;;;7.55;3.65;;;;;;;22.10;74.66;97418.47;5029876;28;20049;-74
2022/05/23 07:22:03;;;;;;;5.47;3.55;;;;;;;22.02;73.56;97421.59;5027772;28;20110;-74
2022/05/23 07:24:31;;;;;;;5.47;3.17;;;;;;;22.09;72.99;97428.00;5045016;28;20057;-74
2022/05/23 07:26:57;;;;;;;7.95;3.67;;;;;;;22.03;73.34;97429.56;5026293;28;20108;-75
2022/05/23 07:29:23;;;;;;;5.80;3.75;;;;;;;22.16;72.14;97416.94;5029073;28;20071;-75
2022/05/23 07:31:49;;;;;;;7.35;4.10;;;;;;;22.17;73.36;97418.56;5029085;28;20029;-74
2022/05/23 07:34:15;;;;;;;6.35;3.90;;;;;;;22.22;72.69;97409.84;5029257;28;20103;-75
2022/05/23 07:36:40;;;;;;;6.10;3.60;;;;;;;22.42;72.08;97416.78;5029902;28;20111;-74
2022/05/23 07:39:09;;;;;;;5.97;3.78;;;;;;;22.45;73.02;97406.03;5028551;28;20045;-73
2022/05/23 07:41:35;;;;;;;4.93;3.38;;;;;;;22.43;73.52;97390.50;5030093;28;20017;-74
2022/05/23 07:44:01;;;;;;;8.63;4.07;;;;;;;22.78;73.26;97419.84;5030187;28;20024;-72
2022/05/23 07:46:26;;;;;;;6.18;3.90;;;;;;;22.84;72.99;97423.88;5027259;28;20049;-73
2022/05/23 07:48:52;;;;;;;6.30;3.80;;;;;;;22.85;72.84;97401.19;5029937;28;20024;-74
2022/05/23 07:51:29;;;;;;;5.82;4.00;;;;;;;23.12;70.15;97435.19;5030167;28;20029;-74
2022/05/23 08:02:10;;;;;;;6.38;3.42;;;;;;;23.38;68.99;97409.81;5027645;28;20500;-74
2022/05/23 08:04:35;;;;;;;12.98;3.70;;;;;;;23.40;68.61;97392.69;5030069;28;20030;-75
2022/05/23 08:07:00;;;;;;;4.25;3.47;;;;;;;23.47;67.90;97395.50;5028961;28;20091;-74
2022/05/23 08:09:26;;;;;;;5.88;3.30;;;;;;;23.65;67.01;97406.75;5028918;28;20044;-73
2022/05/23 08:11:55;;;;;;;5.50;3.92;;;;;;;23.33;68.94;97404.63;5030766;28;20026;-73
2022/05/23 08:14:22;;;;;;;9.93;3.95;;;;;;;23.35;68.84;97404.22;5029295;28;20104;-73
2022/05/23 08:16:48;;;;;;;5.32;3.95;;;;;;;23.36;68.18;97395.47;5029425;28;20044;-74
2022/05/23 08:19:14;;;;;;;6.15;3.50;;;;;;;23.48;68.03;97410.28;5029045;28;20041;-74
2022/05/23 08:21:52;;;;;;;5.78;3.60;;;;;;;23.53;68.90;97409.88;5029769;28;20080;-74
2022/05/23 08:24:18;;;;;;;6.35;4.10;;;;;;;23.63;69.01;97393.19;5029274;28;20026;-75
2022/05/23 08:26:44;;;;;;;6.13;4.07;;;;;;;23.61;67.87;97400.34;5044644;28;20091;-74
2022/05/23 08:29:10;;;;;;;8.77;4.05;;;;;;;23.41;68.87;97409.06;5029708;28;20034;-73
2022/05/23 08:31:37;;;;;;;6.18;3.88;;;;;;;23.38;68.19;97404.22;5030138;28;20029;-74
2022/05/23 08:34:03;;;;;;;4.68;3.80;;;;;;;23.26;69.00;97379.47;5030385;28;20048;-74
2022/05/23 08:36:29;;;;;;;5.75;3.90;;;;;;;23.43;68.33;97397.50;5035902;28;20082;-73
2022/05/23 08:38:54;;;;;;;4.63;3.63;;;;;;;23.21;69.90;97381.84;5034275;28;20026;-74
2022/05/23 08:41:31;;;;;;;8.85;4.07;;;;;;;23.13;71.26;97394.94;5035013;28;20188;-74
2022/05/23 08:44:29;;;;;;;7.05;4.45;;;;;;;23.01;72.14;97400.88;5031663;28;20117;-75
2022/05/23 08:47:11;;;;;;;8.20;5.60;;;;;;;22.88;73.14;97396.81;5024516;28;20111;-74
2022/05/23 08:49:45;;;;;;;6.80;4.88;;;;;;;23.14;73.84;97393.75;5030306;28;20025;-73
2022/05/23 08:52:37;;;;;;;5.95;4.43;;;;;;;23.26;72.57;97396.22;5030841;28;20030;-74
2022/05/23 08:55:19;;;;;;;7.18;5.07;;;;;;;22.90;73.64;97389.63;5030196;28;20045;-74
2022/05/23 08:58:06;;;;;;;6.82;4.60;;;;;;;22.89;73.47;97387.25;5029816;28;20417;-74
2022/05/23 09:00:37;;;;;;;9.32;5.00;;;;;;;22.53;74.50;97369.44;5029819;28;20482;-74
2022/05/23 09:03:34;;;;;;;6.55;4.50;;;;;;;22.90;75.43;97377.66;5030383;28;20116;-73
2022/05/23 09:06:10;;;;;;;10.23;4.82;;;;;;;23.15;73.09;97378.59;5030525;28;20030;-74
2022/05/23 09:08:45;;;;;;;7.80;4.63;;;;;;;23.38;71.99;97383.88;5030232;28;20488;-73
2022/05/23 09:11:20;;;;;;;;;;;;;;;23.50;70.81;97383.56;5028886;28;20060;-73
2022/05/23 09:13:45;;;;;;;5.93;4.70;;;;;;;23.57;70.11;97388.38;5030340;28;19924;-74
2022/05/23 09:16:13;;;;;;;8.80;5.80;;;;;;;23.30;69.79;97373.91;5030521;28;20025;-73
2022/05/23 09:18:55;;;;;;;7.85;5.32;;;;;;;23.49;70.74;97379.19;5030508;28;20029;-74
2022/05/23 09:21:21;;;;;;;6.82;4.35;;;;;;;23.60;70.88;97387.56;5010061;28;20144;-73
2022/05/23 09:23:50;;;;;;;5.53;4.10;;;;;;;23.69;70.75;97379.63;5010240;28;20160;-73
2022/05/23 09:26:29;;;;;;;8.88;4.68;;;;;;;23.80;69.85;97377.66;5009833;28;20053;-73
2022/05/23 09:28:55;;;;;;;9.00;5.18;;;;;;;23.93;69.13;97378.88;5010426;28;20069;-74
2022/05/23 09:31:26;;;;;;;7.20;4.38;;;;;;;23.98;68.90;97379.28;5025697;28;20069;-74
2022/05/23 09:33:54;;;;;;;6.05;4.63;;;;;;;24.11;68.97;97384.50;5029519;28;20029;-75
2022/05/23 09:36:23;;;;;;;5.85;4.72;;;;;;;24.07;67.95;97384.47;5030086;28;20025;-73
2022/05/23 09:39:00;;;;;;;8.77;4.45;;;;;;;24.05;67.99;97383.28;5045146;28;20065;-74
2022/05/23 09:47:45;;;;;;;7.75;4.68;;;;;;;23.89;68.93;97366.91;5030376;28;20041;-74
2022/05/23 09:50:30;;;;;;;6.25;4.03;;;;;;;23.87;68.99;97358.13;5029787;28;20022;-75
2022/05/23 09:52:57;;;;;;;5.93;4.65;;;;;;;23.94;69.39;97361.72;5029787;28;20033;-75
2022/05/23 09:55:28;;;;;;;6.50;4.43;;;;;;;23.88;68.18;97354.13;5029990;28;20076;-73
2022/05/23 09:57:57;;;;;;;5.95;4.47;;;;;;;23.67;68.97;97354.09;5028340;28;20057;-72
2022/05/23 10:00:23;;;;;;;5.50;4.32;;;;;;;23.77;69.40;97342.13;5026986;28;20382;-74
2022/05/23 10:03:01;;;;;;;6.47;4.53;;;;;;;23.60;69.90;97342.88;5027470;28;20040;-74
2022/05/23 10:05:34;;;;;;;9.85;4.57;;;;;;;23.32;71.57;97338.00;5029952;28;20033;-74
2022/05/23 10:08:21;;;;;;;6.68;4.30;;;;;;;23.68;71.54;97336.16;5029857;28;20517;-74
2022/05/23 10:10:56;;;;;;;7.85;5.35;;;;;;;24.09;70.12;97333.78;5034616;28;20045;-83
2022/05/23 10:13:35;;;;;;;6.60;4.25;;;;;;;24.33;68.58;97322.63;5055407;28;20029;-81
2022/05/23 10:16:18;;;;;;;5.15;3.72;;;;;;;24.61;68.27;97324.56;5039731;28;20033;-81
2022/05/23 10:18:56;;;;;;;5.63;4.10;;;;;;;24.95;67.53;97319.31;5052345;28;20033;-81
2022/05/23 10:21:29;;;;;;;7.00;3.90;;;;;;;25.26;64.77;97321.16;5046585;28;20493;-80
2022/05/23 10:24:16;;;;;;;6.95;4.40;;;;;;;25.52;64.09;97334.69;5037870;28;20025;-81
2022/05/23 10:26:49;;;;;;;8.75;4.20;;;;;;;25.60;62.64;97324.22;5036476;28;20021;-83
2022/05/23 10:29:39;;;;;;;8.30;4.13;;;;;;;25.60;61.06;97329.00;5037334;28;20026;-82
2022/05/23 10:32:07;;;;;;;7.35;4.30;;;;;;;25.52;60.90;97328.28;5052115;28;20087;-81
2022/05/23 10:34:44;;;;;;;5.43;3.85;;;;;;;25.50;61.06;97320.25;5036364;28;20026;-81
2022/05/23 10:37:28;;;;;;;5.57;4.18;;;;;;;25.60;60.68;97317.81;5039358;28;20128;-83
2022/05/23 10:42:45;;;;;;;5.60;4.28;;;;;;;25.42;61.95;97312.28;5031449;28;20043;-75
2022/05/23 10:45:37;;;;;;;5.00;4.13;;;;;;;25.59;61.63;97299.41;5036836;28;20021;-75
2022/05/23 10:48:21;;;;;;;7.82;3.78;;;;;;;25.77;60.30;97302.91;5038458;28;20030;-75
2022/05/23 10:51:08;;;;;;;6.87;4.63;;;;;;;26.02;59.49;97295.09;5027299;28;20832;-75
2022/05/23 10:53:46;;;;;;;5.82;4.35;;;;;;;26.05;59.20;97288.66;5037202;28;20473;-77
2022/05/23 10:56:42;;;;;;;9.90;4.72;;;;;;;25.07;60.57;97279.66;5033752;28;20084;-75
2022/05/23 10:59:22;;;;;;;7.40;4.32;;;;;;;25.27;60.86;97288.38;5031689;28;20033;-76
2022/05/23 11:02:05;;;;;;;7.72;4.82;;;;;;;24.99;62.23;97283.72;5032167;28;20028;-75
2022/05/23 11:05:02;;;;;;;5.18;3.88;;;;;;;24.86;62.90;97280.56;5032704;28;20133;-74
2022/05/23 11:08:08;;;;;;;10.50;4.57;;;;;;;24.90;62.92;97277.75;5031739;28;20049;-75
2022/05/23 11:10:52;;;;;;;6.10;4.20;;;;;;;24.50;63.60;97282.63;5027843;28;20152;-75
2022/05/23 11:13:36;;;;;;;6.38;4.82;;;;;;;24.41;63.82;97271.06;5031930;28;20060;-77
2022/05/23 11:16:19;;;;;;;12.15;7.80;;;;;;;24.75;63.72;97262.97;5032068;28;20087;-76
2022/05/23 11:19:02;;;;;;;8.88;4.93;;;;;;;24.98;62.50;97268.09;5030428;28;20021;-75
2022/05/23 11:22:07;;;;;;;9.23;5.20;;;;;;;25.03;62.07;97262.06;5028351;28;20036;-75
2022/05/23 11:24:44;;;;;;;6.25;4.28;;;;;;;25.24;61.90;97264.78;5028266;28;20128;-75
2022/05/23 11:35:59;;;;;;;6.15;4.65;;;;;;;25.58;61.40;97236.97;5036026;28;20064;-79
2022/05/23 11:38:27;;;;;;;5.70;4.38;;;;;;;25.45;61.51;97233.84;5032240;28;20500;-75
2022/05/23 11:40:59;;;;;;;5.90;4.55;;;;;;;25.59;61.07;97234.97;5030460;28;20029;-76
2022/05/23 11:43:26;;;;;;;7.22;4.40;;;;;;;25.68;60.20;97232.50;5028025;28;20035;-73
2022/05/23 11:46:04;;;;;;;6.50;3.63;;;;;;;25.22;60.71;97191.56;5029993;28;20045;-77
2022/05/23 11:48:47;;;;;;;6.38;4.22;;;;;;;25.67;61.14;97228.91;5028005;28;20021;-73
2022/05/23 11:51:12;;;;;;;6.55;3.97;;;;;;;25.97;60.44;97226.22;5028350;28;20029;-73
2022/05/23 11:53:46;;;;;;;4.57;3.53;;;;;;;26.07;59.45;97218.94;5028801;28;20025;-74
2022/05/23 11:56:43;;;;;;;6.68;4.13;;;;;;;26.14;59.14;97224.47;5026130;28;20033;-74
2022/05/23 11:59:30;;;;;;;7.80;4.10;;;;;;;26.22;59.16;97220.41;5029718;28;20064;-73
2022/05/23 12:02:20;;;;;;;6.95;4.07;;;;;;;26.37;58.69;97210.66;5029738;28;20053;-74
2022/05/23 12:04:52;;;;;;;7.68;4.10;;;;;;;26.41;58.63;97214.19;5021075;28;20036;-73
2022/05/23 12:07:43;;;;;;;8.20;4.75;;;;;;;26.50;58.92;97213.72;5029125;28;20018;-73
2022/05/23 12:10:20;;;;;;;5.95;4.28;;;;;;;26.56;59.12;97206.44;5023041;28;20386;-73
2022/05/23 12:13:20;;;;;;;12.52;4.97;;;;;;;26.41;58.23;97205.78;5024480;28;20092;-73
2022/05/23 12:15:47;;;;;;;5.72;4.43;;;;;;;26.18;59.45;97208.47;5029747;28;20375;-74
2022/05/23 12:18:13;;;;;;;8.05;4.60;;;;;;;26.32;58.92;97208.28;5026339;28;20393;-75
2022/05/23 12:20:55;;;;;;;7.47;4.18;;;;;;;26.36;59.13;97211.06;5027496;28;20168;-74
2022/05/23 12:23:42;;;;;;;6.65;3.70;;;;;;;26.37;58.96;97215.47;5027857;28;20497;-74
2022/05/23 12:26:10;;;;;;;9.00;6.43;;;;;;;26.29;59.02;97211.13;5025998;28;20029;-75
2022/05/23 12:29:28;;;;;;;6.25;4.90;;;;;;;26.38;59.52;97212.22;5027924;28;20029;-74
2022/05/23 12:32:17;;;;;;;7.53;4.47;;;;;;;26.18;58.88;97205.66;5028189;28;20055;-75
2022/05/23 12:34:47;;;;;;;7.85;4.88;;;;;;;26.18;59.60;97197.25;5027789;28;20028;-74
2022/05/23 12:37:26;;;;;;;12.93;4.68;;;;;;;26.18;59.27;97191.63;5028448;28;20032;-76
2022/05/23 12:40:11;;;;;;;6.03;4.15;;;;;;;26.24;59.39;97191.97;5027093;28;20040;-74
2022/05/23 12:42:55;;;;;;;9.20;5.32;;;;;;;26.28;59.86;97189.94;5023108;28;20060;-76